Terminal Aerodrome Forecast
Issued by NWS

Home | Current Version | Previous Version | Text Only | Print | Product List | Glossary On
Versions: 1 2 3 4 5 6 7 8 9 10 11 12
000
FTUS42 TJSJ 230543
TAFISX
TAF
TISX 230543Z 2306/2406 07007KT P6SM FEW030
     FM231400 10014KT P6SM VCSH SCT030 SCT050
     FM232300 09010KT P6SM VCSH SCT025 SCT060 BKN090=

USA.gov is the U.S. government's official web portal to all federal, state and local government web resources and services.